Time;durP1;ratioP1;P1;durP2;ratioP2;P2;SDS_P1;SDS_P2;PMS_P1;PMS_P2;Temp;Humidity;BMP_temperature;BMP_pressure;BME280_temperature;BME280_humidity;BME280_pressure;Samples;Min_cycle;Max_cycle;Signal;HPM_P1;HPM_P2
2022/05/31 00:02:39;;;;;;;1.63;1.53;;;14.80;25.90;;;;;;10544788;27;20223;-74
2022/05/31 00:07:43;;;;;;;1.50;1.40;;;14.70;26.10;;;;;;10542945;28;20302;-73
2022/05/31 00:12:47;;;;;;;1.50;1.40;;;14.60;26.10;;;;;;10542510;28;20352;-74
2022/05/31 00:17:52;;;;;;;1.60;1.50;;;14.50;26.20;;;;;;10537282;28;20224;-74
2022/05/31 00:22:56;;;;;;;1.70;1.60;;;14.50;26.50;;;;;;10503150;28;20235;-74
2022/05/31 00:28:00;;;;;;;2.47;1.60;;;14.50;26.30;;;;;;10537838;28;20219;-74
2022/05/31 00:33:06;;;;;;;1.57;1.47;;;14.40;26.10;;;;;;10540125;28;20227;-74
2022/05/31 00:38:09;;;;;;;1.70;1.60;;;14.30;26.50;;;;;;10538239;28;20219;-74
2022/05/31 00:43:16;;;;;;;1.70;1.60;;;14.20;26.30;;;;;;10543527;28;20234;-75
2022/05/31 00:48:24;;;;;;;2.00;1.80;;;14.00;26.50;;;;;;10546367;28;20222;-74
2022/05/31 00:53:31;;;;;;;1.70;1.60;;;14.00;26.90;;;;;;10551291;28;20238;-74
2022/05/31 00:58:40;;;;;;;2.17;1.80;;;13.90;26.70;;;;;;10547240;28;20748;-74
2022/05/31 01:03:46;;;;;;;2.03;1.80;;;13.60;26.70;;;;;;10546116;28;20234;-74
2022/05/31 01:08:49;;;;;;;1.50;1.43;;;13.40;27.10;;;;;;10547796;28;20219;-74
2022/05/31 01:13:53;;;;;;;1.90;1.80;;;13.30;26.90;;;;;;10506558;28;20321;-73
2022/05/31 01:18:58;;;;;;;1.77;1.67;;;13.20;27.10;;;;;;10507539;28;20216;-73
2022/05/31 01:24:09;;;;;;;1.80;1.70;;;13.20;27.40;;;;;;10548386;28;20612;-74
2022/05/31 01:29:18;;;;;;;2.17;1.83;;;13.20;28.10;;;;;;10551059;27;20215;-74
2022/05/31 01:34:25;;;;;;;1.80;1.70;;;13.10;27.70;;;;;;10550056;27;20238;-74
2022/05/31 01:39:37;;;;;;;1.80;1.70;;;13.10;27.80;;;;;;10545839;28;20352;-73
2022/05/31 01:44:44;;;;;;;1.70;1.60;;;13.10;28.10;;;;;;10547282;28;20595;-74
2022/05/31 01:49:50;;;;;;;1.60;1.50;;;13.10;28.00;;;;;;10546477;27;20535;-74
2022/05/31 01:54:56;;;;;;;2.37;1.90;;;13.10;27.90;;;;;;10550665;28;20219;-73
2022/05/31 02:00:07;;;;;;;1.60;1.50;;;13.10;28.10;;;;;;10545445;28;20707;-73
2022/05/31 02:05:11;;;;;;;1.77;1.60;;;13.10;28.60;;;;;;10501023;28;20226;-74
2022/05/31 02:10:15;;;;;;;1.90;1.80;;;13.10;27.80;;;;;;10501919;28;20231;-74
2022/05/31 02:15:19;;;;;;;2.30;1.70;;;13.10;28.10;;;;;;10523208;28;20227;-73
2022/05/31 02:20:22;;;;;;;2.03;1.90;;;13.10;28.00;;;;;;10547224;28;20811;-73
2022/05/31 02:25:27;;;;;;;1.90;1.80;;;13.10;27.90;;;;;;10545267;28;20412;-73
2022/05/31 02:30:30;;;;;;;2.03;1.93;;;13.00;28.30;;;;;;10543175;28;20231;-73
2022/05/31 02:35:33;;;;;;;1.90;1.80;;;13.00;28.10;;;;;;10542609;28;20230;-74
2022/05/31 02:40:37;;;;;;;2.70;2.00;;;12.90;28.00;;;;;;10545510;27;20234;-73
2022/05/31 02:45:41;;;;;;;1.80;1.70;;;12.80;28.40;;;;;;10543011;27;20231;-73
2022/05/31 02:50:44;;;;;;;2.10;1.80;;;12.80;28.30;;;;;;10546126;27;20229;-73
2022/05/31 02:55:48;;;;;;;1.97;1.80;;;12.70;28.40;;;;;;10545307;27;20227;-74
2022/05/31 03:00:52;;;;;;;1.63;1.53;;;12.80;28.90;;;;;;10539749;28;20839;-73
2022/05/31 03:05:55;;;;;;;1.67;1.57;;;12.80;28.50;;;;;;10540326;28;20296;-73
2022/05/31 03:11:00;;;;;;;1.93;1.67;;;12.80;28.60;;;;;;10538259;27;20699;-73
2022/05/31 03:16:04;;;;;;;1.70;1.60;;;12.70;28.90;;;;;;10541536;28;20715;-74
2022/05/31 03:21:12;;;;;;;1.80;1.70;;;12.80;28.70;;;;;;10541075;28;20223;-73
2022/05/31 03:26:20;;;;;;;1.80;1.70;;;12.70;29.30;;;;;;10538713;28;20595;-73
2022/05/31 03:31:24;;;;;;;2.00;1.87;;;12.70;29.20;;;;;;10543144;28;20707;-73
2022/05/31 03:36:27;;;;;;;1.50;1.40;;;12.70;28.80;;;;;;10540690;28;20226;-73
2022/05/31 03:41:35;;;;;;;2.23;1.63;;;12.70;28.60;;;;;;10539373;28;20231;-73
2022/05/31 03:46:38;;;;;;;2.30;1.80;;;12.70;29.40;;;;;;10520641;28;20220;-73
2022/05/31 03:51:41;;;;;;;1.60;1.50;;;12.70;28.60;;;;;;10534717;28;20802;-73
2022/05/31 03:56:46;;;;;;;1.70;1.60;;;12.60;28.70;;;;;;10538504;28;20611;-73
2022/05/31 04:01:49;;;;;;;1.83;1.73;;;12.60;29.30;;;;;;10498739;28;20428;-73
2022/05/31 04:06:52;;;;;;;1.60;1.50;;;12.60;29.10;;;;;;10501457;28;20740;-73
2022/05/31 04:11:59;;;;;;;2.57;1.90;;;12.50;29.00;;;;;;10536946;28;20783;-73
2022/05/31 04:17:02;;;;;;;1.73;1.50;;;12.50;29.30;;;;;;10515468;27;20220;-73
2022/05/31 04:22:05;;;;;;;2.10;1.80;;;12.40;29.30;;;;;;10548988;28;20224;-73
2022/05/31 04:27:15;;;;;;;1.83;1.67;;;12.40;30.00;;;;;;10543213;28;20227;-74
2022/05/31 04:32:19;;;;;;;2.80;1.93;;;12.50;30.30;;;;;;10543824;28;20512;-73
2022/05/31 04:37:23;;;;;;;2.00;1.90;;;12.50;30.00;;;;;;10542763;28;20249;-74
2022/05/31 04:42:27;;;;;;;2.73;2.10;;;12.50;30.00;;;;;;10543262;28;20245;-74
2022/05/31 04:47:31;;;;;;;2.40;2.20;;;12.50;30.00;;;;;;10548138;28;20490;-74
2022/05/31 04:52:34;;;;;;;2.13;2.00;;;12.50;30.00;;;;;;10550579;28;20254;-75
2022/05/31 04:57:39;;;;;;;2.30;2.10;;;12.50;30.00;;;;;;10546228;28;20225;-75
2022/05/31 05:02:43;;;;;;;1.90;1.80;;;12.60;30.70;;;;;;10547082;28;20614;-75
2022/05/31 05:07:46;;;;;;;3.87;2.00;;;12.60;30.00;;;;;;10554712;28;20219;-74
2022/05/31 05:12:51;;;;;;;2.30;2.20;;;12.70;31.10;;;;;;10550349;28;20230;-75
2022/05/31 05:17:54;;;;;;;2.00;1.90;;;12.80;31.80;;;;;;10564737;28;20214;-76
2022/05/31 05:22:58;;;;;;;2.30;2.20;;;12.90;31.20;;;;;;10549707;27;20222;-76
2022/05/31 05:30:38;;;;;;;3.50;1.87;;;13.10;31.30;;;;;;10550719;28;20230;-76
2022/05/31 05:33:27;;;;;;;2.13;1.83;;;13.20;32.20;;;;;;10530933;28;20242;-75
2022/05/31 05:38:30;;;;;;;2.00;1.90;;;13.30;31.60;;;;;;10543983;27;20219;-76
2022/05/31 05:43:35;;;;;;;2.00;1.90;;;13.50;32.00;;;;;;10544625;28;20219;-75
2022/05/31 05:48:38;;;;;;;2.10;2.00;;;13.70;33.00;;;;;;10544357;27;20489;-75
2022/05/31 05:53:41;;;;;;;2.30;2.10;;;13.80;32.50;;;;;;10544334;28;20227;-75
2022/05/31 05:58:46;;;;;;;2.60;2.20;;;14.00;32.70;;;;;;10543023;28;20230;-74
2022/05/31 06:03:53;;;;;;;2.33;2.17;;;14.20;33.60;;;;;;10543912;27;20233;-75
2022/05/31 06:09:05;;;;;;;2.40;2.20;;;14.30;34.40;;;;;;10548946;27;20280;-75
2022/05/31 06:14:13;;;;;;;2.80;2.60;;;14.50;35.30;;;;;;10543334;28;20216;-74
2022/05/31 06:19:20;;;;;;;2.50;2.30;;;14.80;34.90;;;;;;10540604;28;21147;-73
2022/05/31 06:24:24;;;;;;;1.90;1.80;;;15.00;34.80;;;;;;10536761;28;20258;-73
2022/05/31 06:29:29;;;;;;;2.10;1.90;;;15.20;33.70;;;;;;10527478;28;20584;-73
2022/05/31 06:34:32;;;;;;;2.37;1.97;;;15.50;33.90;;;;;;10540339;28;20300;-73
2022/05/31 06:39:36;;;;;;;1.87;1.70;;;15.60;33.50;;;;;;10541435;28;20220;-73
2022/05/31 06:44:43;;;;;;;3.30;1.80;;;15.90;33.20;;;;;;10541407;28;20617;-73
2022/05/31 06:49:46;;;;;;;2.00;1.40;;;16.10;33.10;;;;;;10542972;28;20309;-73
2022/05/31 07:00:14;;;;;;;3.17;1.50;;;16.50;33.40;;;;;;10534968;27;20699;-73
2022/05/31 07:05:19;;;;;;;1.87;1.57;;;16.70;33.60;;;;;;10544585;27;20310;-73
2022/05/31 07:10:23;;;;;;;1.43;1.30;;;17.00;32.80;;;;;;10542112;28;20223;-73
2022/05/31 07:15:28;;;;;;;1.93;1.40;;;17.20;32.90;;;;;;10540716;28;20315;-73
2022/05/31 07:20:31;;;;;;;1.57;1.40;;;17.40;32.80;;;;;;10539984;28;20303;-73
2022/05/31 07:25:34;;;;;;;1.50;1.30;;;17.60;32.60;;;;;;10538350;28;20226;-73
2022/05/31 07:30:39;;;;;;;1.47;1.37;;;17.80;32.30;;;;;;10541765;28;20653;-73
2022/05/31 07:35:43;;;;;;;1.43;1.33;;;18.10;32.20;;;;;;10543280;28;20223;-73
2022/05/31 07:40:46;;;;;;;1.37;1.27;;;18.30;31.50;;;;;;10536665;28;20219;-73
2022/05/31 07:45:50;;;;;;;1.20;1.10;;;18.50;31.50;;;;;;10538200;28;20227;-73
2022/05/31 07:50:53;;;;;;;1.30;1.20;;;18.80;30.40;;;;;;10543395;28;20231;-73
2022/05/31 07:55:57;;;;;;;1.10;1.10;;;19.00;30.30;;;;;;10536576;28;20250;-73
2022/05/31 08:01:04;;;;;;;1.20;1.13;;;19.20;30.00;;;;;;10539603;28;20216;-73
2022/05/31 08:06:09;;;;;;;1.33;1.17;;;19.40;30.00;;;;;;10497659;28;20220;-73
2022/05/31 08:11:18;;;;;;;1.77;1.13;;;19.50;29.80;;;;;;10498225;28;20232;-73
2022/05/31 08:16:24;;;;;;;1.40;1.30;;;19.70;28.90;;;;;;10540933;28;20240;-73
2022/05/31 08:21:30;;;;;;;1.20;1.10;;;19.80;29.10;;;;;;10538359;28;20553;-73
2022/05/31 08:26:35;;;;;;;1.20;1.10;;;19.80;29.00;;;;;;10531797;28;20248;-73
2022/05/31 08:31:40;;;;;;;1.50;1.40;;;19.90;29.50;;;;;;10593321;27;20235;-72
2022/05/31 08:36:43;;;;;;;1.57;1.27;;;20.10;29.20;;;;;;10602754;27;20226;-74
2022/05/31 08:41:48;;;;;;;1.27;1.17;;;20.20;29.20;;;;;;10614521;27;20240;-73
2022/05/31 08:47:00;;;;;;;1.27;1.20;;;20.40;29.10;;;;;;10599468;27;20710;-73
2022/05/31 08:52:12;;;;;;;1.90;1.37;;;20.50;29.00;;;;;;10570789;28;20313;-73
2022/05/31 08:57:20;;;;;;;1.00;1.00;;;20.70;28.60;;;;;;10544177;28;20223;-73
2022/05/31 09:02:31;;;;;;;1.47;1.37;;;20.80;28.70;;;;;;10528908;28;20239;-72
2022/05/31 09:07:51;;;;;;;1.30;1.20;;;21.10;28.40;;;;;;10536164;28;20233;-73
2022/05/31 09:13:05;;;;;;;1.30;1.30;;;21.20;28.60;;;;;;10544728;28;20306;-73
2022/05/31 09:18:16;;;;;;;1.37;1.10;;;21.50;28.40;;;;;;10568251;27;20227;-73
2022/05/31 09:23:22;;;;;;;3.47;1.27;;;21.70;28.20;;;;;;10526974;28;20729;-74
2022/05/31 09:28:38;;;;;;;1.83;1.10;;;22.00;27.80;;;;;;10579327;27;20296;-73
2022/05/31 09:33:53;;;;;;;1.37;1.27;;;22.20;27.80;;;;;;10621641;27;20230;-73
2022/05/31 09:39:07;;;;;;;2.30;1.50;;;22.40;27.50;;;;;;10608692;27;20589;-73
2022/05/31 09:44:15;;;;;;;1.50;1.40;;;22.70;27.50;;;;;;10570272;27;20493;-72
2022/05/31 09:49:28;;;;;;;1.53;1.27;;;22.90;27.30;;;;;;10499941;28;20692;-73
2022/05/31 09:59:59;;;;;;;1.30;1.20;;;23.30;27.50;;;;;;10562094;28;20242;-73
2022/05/31 10:05:22;;;;;;;1.20;1.00;;;23.50;26.80;;;;;;10567565;28;20227;-73
2022/05/31 10:10:28;;;;;;;1.63;1.30;;;23.60;25.70;;;;;;10575863;27;20248;-73
2022/05/31 10:15:46;;;;;;;1.23;1.13;;;23.70;25.20;;;;;;10574852;28;20242;-73
2022/05/31 10:20:56;;;;;;;1.10;1.10;;;23.90;24.90;;;;;;10575574;28;20269;-73
2022/05/31 10:26:00;;;;;;;1.30;1.10;;;24.00;24.40;;;;;;10575395;27;20223;-73
2022/05/31 10:31:13;;;;;;;1.37;1.10;;;24.20;25.00;;;;;;10574777;28;20766;-73
2022/05/31 10:36:20;;;;;;;0.97;0.97;;;24.40;25.00;;;;;;10574917;27;20281;-73
2022/05/31 10:41:28;;;;;;;1.20;1.00;;;24.60;23.80;;;;;;10574631;28;20710;-73
2022/05/31 10:46:56;;;;;;;1.57;1.17;;;24.80;23.90;;;;;;10537194;27;20223;-76
2022/05/31 10:52:10;;;;;;;1.00;1.00;;;24.90;23.70;;;;;;10537302;28;20231;-75
2022/05/31 10:57:24;;;;;;;1.73;1.20;;;25.10;23.10;;;;;;10534074;28;20290;-75
2022/05/31 11:02:55;;;;;;;1.00;1.00;;;25.20;22.80;;;;;;10539916;28;20310;-75
2022/05/31 11:13:54;;;;;;;1.20;1.10;;;25.40;22.80;;;;;;10543876;28;20219;-75
2022/05/31 11:19:17;;;;;;;1.00;1.00;;;25.50;22.50;;;;;;10545970;27;20230;-75
2022/05/31 11:24:42;;;;;;;1.20;1.10;;;25.60;22.80;;;;;;10538592;27;20226;-74
2022/05/31 11:30:07;;;;;;;1.20;1.07;;;25.70;22.60;;;;;;10536362;28;20952;-75
2022/05/31 11:35:30;;;;;;;1.27;1.17;;;25.80;22.60;;;;;;10515697;28;20254;-74
2022/05/31 11:40:51;;;;;;;1.47;1.17;;;25.90;22.20;;;;;;10541710;28;20223;-74
2022/05/31 11:46:03;;;;;;;1.37;1.10;;;25.90;21.50;;;;;;10532530;28;20210;-76
2022/05/31 11:51:17;;;;;;;1.23;1.10;;;26.00;21.20;;;;;;10504345;28;20208;-74
2022/05/31 11:56:29;;;;;;;2.63;1.20;;;25.90;20.70;;;;;;10522439;27;20337;-75
2022/05/31 12:01:39;;;;;;;1.17;1.00;;;25.90;20.80;;;;;;10535240;28;20961;-75
2022/05/31 12:06:52;;;;;;;2.47;1.10;;;25.90;21.60;;;;;;10536846;28;20306;-76
2022/05/31 12:12:06;;;;;;;1.30;1.20;;;25.90;21.00;;;;;;10525314;28;20223;-76
2022/05/31 12:17:10;;;;;;;1.70;1.10;;;26.00;20.90;;;;;;10540767;28;20759;-74
2022/05/31 12:22:19;;;;;;;1.00;1.00;;;26.10;21.80;;;;;;10556768;28;20230;-74
2022/05/31 12:27:27;;;;;;;1.90;1.00;;;26.20;20.90;;;;;;10556998;28;20226;-74
2022/05/31 12:32:42;;;;;;;1.50;1.13;;;26.40;20.90;;;;;;10555337;28;20249;-74
2022/05/31 12:37:53;;;;;;;1.40;1.30;;;26.50;21.50;;;;;;10555613;28;20722;-73
2022/05/31 12:42:57;;;;;;;1.40;1.27;;;26.60;21.40;;;;;;10569947;28;20238;-72
2022/05/31 12:48:11;;;;;;;1.43;1.33;;;26.70;21.30;;;;;;10571838;27;20227;-73
2022/05/31 12:53:19;;;;;;;1.47;1.37;;;26.70;21.20;;;;;;10615753;27;20226;-73
2022/05/31 12:58:40;;;;;;;1.40;1.30;;;26.70;21.20;;;;;;10616533;27;20226;-73
2022/05/31 13:03:57;;;;;;;1.27;1.17;;;26.70;20.60;;;;;;10617332;27;20283;-74
2022/05/31 13:09:04;;;;;;;1.93;1.17;;;26.70;20.90;;;;;;10623274;27;20230;-73
2022/05/31 13:19:41;;;;;;;1.70;1.20;;;26.60;20.60;;;;;;10620185;27;20236;-74
2022/05/31 13:24:51;;;;;;;1.40;1.30;;;26.60;20.70;;;;;;10617396;27;20235;-75
2022/05/31 13:30:09;;;;;;;1.40;1.30;;;26.70;20.70;;;;;;10620511;27;20229;-75
2022/05/31 13:35:15;;;;;;;3.20;1.30;;;26.70;20.10;;;;;;10619865;27;20313;-75
2022/05/31 13:40:20;;;;;;;1.47;1.37;;;26.70;20.60;;;;;;10620239;27;20771;-74
2022/05/31 13:45:28;;;;;;;1.43;1.23;;;26.70;20.40;;;;;;10620122;27;20238;-75
2022/05/31 13:50:38;;;;;;;1.20;1.20;;;26.70;20.40;;;;;;10618726;27;20222;-76
2022/05/31 13:55:41;;;;;;;1.40;1.30;;;26.70;20.30;;;;;;10619585;27;20230;-77
2022/05/31 14:00:49;;;;;;;2.37;1.20;;;26.70;20.90;;;;;;10619472;27;20252;-77
2022/05/31 14:05:56;;;;;;;1.50;1.10;;;26.60;20.50;;;;;;10619350;27;20240;-76
2022/05/31 14:10:59;;;;;;;2.03;1.50;;;26.50;20.60;;;;;;10619670;27;20228;-76
2022/05/31 14:16:16;;;;;;;3.33;1.40;;;26.40;21.00;;;;;;10619030;27;20241;-77
2022/05/31 14:21:21;;;;;;;1.80;1.40;;;26.10;21.20;;;;;;10618924;27;20229;-78
2022/05/31 14:26:25;;;;;;;1.70;1.60;;;25.70;21.90;;;;;;10618825;27;20257;-76
2022/05/31 14:31:30;;;;;;;3.90;1.40;;;25.60;21.80;;;;;;10615682;27;20258;-77
2022/05/31 14:36:37;;;;;;;3.30;1.57;;;25.30;22.20;;;;;;10535288;28;20592;-77
2022/05/31 14:41:43;;;;;;;3.20;1.40;;;24.70;22.60;;;;;;10493825;28;20255;-76
2022/05/31 14:46:47;;;;;;;1.20;1.10;;;24.00;23.30;;;;;;10533363;28;20232;-75
2022/05/31 14:51:50;;;;;;;1.70;1.40;;;23.40;24.20;;;;;;10532788;28;20232;-76
2022/05/31 14:56:54;;;;;;;1.50;1.40;;;23.00;24.40;;;;;;10532727;28;20745;-76
2022/05/31 15:01:59;;;;;;;1.20;1.10;;;22.70;24.80;;;;;;10531955;28;20654;-76
2022/05/31 15:07:07;;;;;;;4.20;2.90;;;22.50;25.40;;;;;;10574099;28;20504;-77
2022/05/31 15:23:04;;;;;;;3.80;3.00;;;22.50;25.40;;;;;;10577515;27;20306;-78
2022/05/31 15:28:08;;;;;;;9.77;8.77;;;22.60;25.10;;;;;;10577385;28;20249;-78
2022/05/31 15:33:32;;;;;;;7.10;6.40;;;22.60;25.20;;;;;;10577636;28;20234;-78
2022/05/31 15:38:35;;;;;;;5.97;4.73;;;22.70;25.40;;;;;;10578884;28;20235;-78
2022/05/31 15:43:55;;;;;;;2.50;2.30;;;22.80;25.10;;;;;;10579342;28;20230;-78
2022/05/31 15:49:03;;;;;;;3.43;1.70;;;22.90;25.60;;;;;;10579670;28;20596;-79
2022/05/31 15:54:13;;;;;;;1.57;1.27;;;23.00;25.30;;;;;;10577737;28;20317;-79
2022/05/31 15:59:21;;;;;;;2.03;1.50;;;23.00;26.20;;;;;;10580989;28;21025;-80
2022/05/31 16:04:34;;;;;;;2.43;1.67;;;23.10;26.40;;;;;;10538987;28;20289;-79
2022/05/31 16:09:42;;;;;;;1.60;1.50;;;23.20;27.30;;;;;;10537753;28;20610;-79
2022/05/31 16:14:47;;;;;;;1.87;1.30;;;23.30;26.90;;;;;;10567326;27;20223;-79
2022/05/31 16:19:54;;;;;;;1.50;1.40;;;23.40;26.60;;;;;;10580740;27;20702;-79
2022/05/31 16:25:01;;;;;;;1.50;1.40;;;23.50;27.70;;;;;;10581235;27;20238;-79
2022/05/31 16:30:04;;;;;;;2.87;1.33;;;23.50;26.80;;;;;;10571848;27;20218;-79
2022/05/31 16:35:10;;;;;;;1.60;1.50;;;23.60;26.20;;;;;;10579027;27;20306;-79
2022/05/31 16:45:35;;;;;;;1.60;1.50;;;23.50;26.10;;;;;;10579519;27;20234;-80
2022/05/31 16:50:40;;;;;;;1.83;1.50;;;23.50;25.80;;;;;;10579633;27;20219;-80
2022/05/31 16:55:43;;;;;;;1.90;1.60;;;23.50;26.30;;;;;;10574736;27;20729;-77
2022/05/31 17:00:46;;;;;;;3.43;2.23;;;23.50;25.80;;;;;;10573191;27;20231;-78
2022/05/31 17:05:51;;;;;;;2.97;2.03;;;23.40;25.80;;;;;;10571886;27;20227;-78
2022/05/31 17:16:30;;;;;;;3.97;3.67;;;23.30;25.90;;;;;;10511313;28;20233;-78
2022/05/31 17:21:37;;;;;;;2.53;2.20;;;23.30;26.10;;;;;;10520197;28;20244;-78
2022/05/31 17:26:41;;;;;;;2.90;2.70;;;23.30;26.30;;;;;;10523216;28;20227;-77
2022/05/31 17:31:44;;;;;;;2.70;2.30;;;23.30;26.40;;;;;;10518892;28;20224;-77
2022/05/31 17:36:49;;;;;;;2.13;1.93;;;23.30;26.20;;;;;;10538025;28;20237;-77
2022/05/31 17:41:55;;;;;;;3.70;1.87;;;23.40;26.40;;;;;;10565962;28;20223;-77
2022/05/31 17:46:59;;;;;;;2.60;2.50;;;23.40;26.30;;;;;;10564603;27;20244;-77
2022/05/31 17:52:04;;;;;;;2.60;2.40;;;23.40;26.40;;;;;;10563169;28;20309;-78
2022/05/31 17:57:07;;;;;;;2.07;1.97;;;23.30;26.80;;;;;;10569569;27;20231;-77
2022/05/31 18:02:11;;;;;;;2.43;1.50;;;23.20;26.80;;;;;;10568813;28;20629;-78
2022/05/31 18:07:15;;;;;;;2.00;1.80;;;23.20;26.70;;;;;;10570686;27;20314;-77
2022/05/31 18:12:19;;;;;;;3.03;1.87;;;23.20;27.00;;;;;;10574589;27;20948;-78
2022/05/31 18:17:22;;;;;;;2.83;2.40;;;23.20;26.70;;;;;;10572313;28;20241;-77
2022/05/31 18:22:27;;;;;;;2.47;2.17;;;23.20;26.60;;;;;;10573993;28;20318;-77
2022/05/31 18:27:30;;;;;;;2.37;2.17;;;23.10;26.90;;;;;;10571511;28;20223;-78
2022/05/31 18:32:36;;;;;;;2.27;1.87;;;23.00;27.00;;;;;;10551750;28;20243;-78
2022/05/31 18:43:08;;;;;;;2.30;2.10;;;22.90;27.30;;;;;;10566122;27;20224;-77
2022/05/31 18:48:12;;;;;;;3.07;2.77;;;22.90;27.60;;;;;;10579363;27;20282;-78
2022/05/31 18:53:16;;;;;;;2.40;2.20;;;22.80;27.20;;;;;;10574532;27;20233;-77
2022/05/31 18:58:26;;;;;;;3.97;2.30;;;22.70;27.80;;;;;;10562515;28;20229;-77
2022/05/31 19:03:32;;;;;;;2.53;2.00;;;22.60;28.60;;;;;;10571410;27;20283;-77
2022/05/31 19:08:38;;;;;;;2.40;2.17;;;22.40;28.20;;;;;;10561763;28;20242;-78
2022/05/31 19:13:43;;;;;;;2.47;2.10;;;22.30;28.20;;;;;;10530868;28;20234;-78
2022/05/31 19:18:51;;;;;;;3.73;3.10;;;22.10;28.40;;;;;;10516380;28;20293;-78
2022/05/31 19:23:56;;;;;;;3.47;2.30;;;22.10;28.90;;;;;;10511468;28;20239;-79
2022/05/31 19:29:00;;;;;;;1.60;1.50;;;22.10;28.50;;;;;;10548468;28;20690;-79
2022/05/31 19:34:07;;;;;;;1.80;1.70;;;22.00;28.20;;;;;;10547691;27;20230;-78
2022/05/31 19:39:12;;;;;;;2.37;2.00;;;21.80;29.00;;;;;;10560334;28;20226;-79
2022/05/31 19:44:17;;;;;;;2.50;2.30;;;21.60;29.10;;;;;;10560329;27;20290;-79
2022/05/31 19:49:20;;;;;;;2.73;2.53;;;21.40;29.50;;;;;;10548189;28;20231;-79
2022/05/31 19:54:29;;;;;;;2.90;2.50;;;21.20;29.80;;;;;;10558962;28;20269;-79
2022/05/31 19:59:33;;;;;;;2.33;2.13;;;21.00;31.40;;;;;;10533121;27;20228;-79
2022/05/31 20:04:36;;;;;;;2.63;2.43;;;20.80;30.10;;;;;;10552478;28;20239;-79
2022/05/31 20:15:01;;;;;;;2.03;1.93;;;20.70;31.60;;;;;;10565268;27;20226;-76
2022/05/31 20:20:06;;;;;;;1.90;1.80;;;20.80;30.70;;;;;;10569330;28;20931;-75
2022/05/31 20:25:15;;;;;;;2.10;2.00;;;20.80;30.70;;;;;;10569282;28;20245;-75
2022/05/31 20:30:18;;;;;;;2.10;2.00;;;20.80;31.60;;;;;;10569506;28;20600;-78
2022/05/31 20:35:21;;;;;;;2.27;2.07;;;20.80;30.80;;;;;;10569965;28;20234;-75
2022/05/31 20:40:28;;;;;;;2.20;2.10;;;20.80;30.80;;;;;;10567644;27;20243;-76
2022/05/31 20:45:32;;;;;;;2.07;1.90;;;20.80;32.10;;;;;;10561341;28;20715;-75
2022/05/31 20:50:35;;;;;;;2.47;2.00;;;20.80;30.90;;;;;;10572817;28;20223;-75
2022/05/31 20:55:41;;;;;;;3.20;2.20;;;20.80;31.00;;;;;;10573948;27;20226;-75
2022/05/31 21:00:52;;;;;;;2.40;2.17;;;20.70;31.50;;;;;;10577366;28;20446;-75
2022/05/31 21:05:57;;;;;;;4.90;2.30;;;20.70;32.50;;;;;;10589127;27;20237;-75
2022/05/31 21:11:02;;;;;;;2.47;2.10;;;20.60;31.50;;;;;;10573659;27;20461;-74
2022/05/31 21:16:06;;;;;;;2.40;2.20;;;20.50;31.90;;;;;;10536386;28;20695;-74
2022/05/31 21:21:14;;;;;;;2.30;2.10;;;20.40;32.00;;;;;;10515799;28;20609;-74
2022/05/31 21:26:25;;;;;;;2.23;2.03;;;20.30;32.40;;;;;;10514503;28;20228;-75
2022/05/31 21:31:30;;;;;;;2.67;2.03;;;20.30;33.00;;;;;;10540750;28;20248;-75
2022/05/31 21:36:36;;;;;;;3.10;2.30;;;20.30;32.10;;;;;;10535132;28;20631;-76
2022/05/31 21:41:41;;;;;;;2.43;2.23;;;20.30;31.90;;;;;;10525911;28;20235;-76
2022/05/31 21:46:50;;;;;;;2.60;2.40;;;20.20;31.90;;;;;;10540050;28;20261;-76
2022/05/31 21:51:54;;;;;;;3.90;2.10;;;20.10;31.70;;;;;;10540107;28;20745;-75
2022/05/31 21:56:59;;;;;;;1.90;1.80;;;20.00;31.60;;;;;;10539848;28;20232;-76
2022/05/31 22:02:10;;;;;;;2.13;1.73;;;19.90;32.00;;;;;;10539196;28;20227;-76
2022/05/31 22:07:13;;;;;;;2.27;2.10;;;19.80;33.10;;;;;;10539069;28;20224;-77
2022/05/31 22:12:18;;;;;;;2.20;2.00;;;19.70;31.80;;;;;;10537670;28;20715;-75
2022/05/31 22:17:21;;;;;;;3.33;2.07;;;19.60;32.00;;;;;;10539026;28;20227;-76
2022/05/31 22:22:25;;;;;;;2.27;2.07;;;19.50;31.70;;;;;;10537979;28;20374;-75
2022/05/31 22:27:29;;;;;;;2.10;2.00;;;19.40;31.80;;;;;;10538132;28;20223;-76
2022/05/31 22:32:32;;;;;;;1.90;1.80;;;19.30;32.30;;;;;;10538115;28;20245;-76
2022/05/31 22:37:37;;;;;;;3.03;2.03;;;19.10;31.80;;;;;;10538133;28;20249;-75
2022/05/31 22:42:46;;;;;;;2.30;2.10;;;19.10;32.30;;;;;;10537300;28;20234;-75
2022/05/31 22:47:50;;;;;;;2.33;2.13;;;18.90;32.90;;;;;;10537533;28;20224;-76
2022/05/31 22:52:54;;;;;;;1.90;1.80;;;18.90;32.30;;;;;;10536389;28;20250;-75
2022/05/31 22:58:02;;;;;;;1.50;1.40;;;18.70;32.00;;;;;;10536966;28;20798;-75
2022/05/31 23:03:08;;;;;;;1.70;1.60;;;18.50;33.10;;;;;;10535201;28;20222;-75
2022/05/31 23:08:13;;;;;;;1.93;1.60;;;18.50;33.00;;;;;;10535795;28;20652;-76
2022/05/31 23:13:20;;;;;;;2.00;1.90;;;18.40;32.70;;;;;;10536254;28;20239;-76
2022/05/31 23:18:24;;;;;;;1.97;1.87;;;18.30;33.00;;;;;;10535500;28;20224;-76
2022/05/31 23:23:48;;;;;;;2.10;1.90;;;18.20;32.70;;;;;;10535062;28;20303;-76
2022/05/31 23:28:58;;;;;;;2.23;1.80;;;18.10;33.60;;;;;;10534820;28;20262;-75
2022/05/31 23:34:06;;;;;;;2.70;2.17;;;18.00;34.10;;;;;;10534650;28;20231;-75
2022/05/31 23:39:10;;;;;;;1.70;1.60;;;18.00;34.10;;;;;;10533872;28;20238;-75
2022/05/31 23:44:15;;;;;;;3.03;2.10;;;18.00;33.60;;;;;;10533336;28;20235;-75
2022/05/31 23:49:18;;;;;;;2.20;1.73;;;18.00;33.70;;;;;;10529848;28;20692;-75
2022/05/31 23:54:21;;;;;;;2.13;1.93;;;18.00;33.20;;;;;;10497772;28;22110;-76
2022/05/31 23:59:26;;;;;;;2.10;1.80;;;18.10;33.40;;;;;;10534952;28;20698;-76
